sensor_id;sensor_type;location;lat;lon;timestamp;temperature;humidity
47520;DHT22;33252;48.122;11.538;2023-02-01T00:01:55;3.40;98.30
47520;DHT22;33252;48.122;11.538;2023-02-01T00:04:22;3.50;98.20
47520;DHT22;33252;48.122;11.538;2023-02-01T00:06:48;3.40;98.60
47520;DHT22;33252;48.122;11.538;2023-02-01T00:09:13;3.40;98.30
47520;DHT22;33252;48.122;11.538;2023-02-01T00:11:39;3.50;98.30
47520;DHT22;33252;48.122;11.538;2023-02-01T00:14:05;3.50;98.50
47520;DHT22;33252;48.122;11.538;2023-02-01T00:16:31;3.50;98.00
47520;DHT22;33252;48.122;11.538;2023-02-01T00:19:12;3.50;98.20
47520;DHT22;33252;48.122;11.538;2023-02-01T00:21:38;3.50;97.90
47520;DHT22;33252;48.122;11.538;2023-02-01T00:24:04;3.50;97.90
47520;DHT22;33252;48.122;11.538;2023-02-01T00:26:33;3.60;97.70
47520;DHT22;33252;48.122;11.538;2023-02-01T00:29:00;3.60;98.00
47520;DHT22;33252;48.122;11.538;2023-02-01T00:31:26;3.60;97.60
47520;DHT22;33252;48.122;11.538;2023-02-01T00:33:51;3.70;97.80
47520;DHT22;33252;48.122;11.538;2023-02-01T00:36:17;3.60;97.80
47520;DHT22;33252;48.122;11.538;2023-02-01T00:38:44;3.60;98.10
47520;DHT22;33252;48.122;11.538;2023-02-01T00:41:14;3.60;98.50
47520;DHT22;33252;48.122;11.538;2023-02-01T00:43:41;3.50;98.80
47520;DHT22;33252;48.122;11.538;2023-02-01T00:46:07;3.40;99.30
47520;DHT22;33252;48.122;11.538;2023-02-01T00:48:33;3.40;99.40
47520;DHT22;33252;48.122;11.538;2023-02-01T00:51:02;3.30;99.90
47520;DHT22;33252;48.122;11.538;2023-02-01T00:53:28;3.10;99.90
47520;DHT22;33252;48.122;11.538;2023-02-01T00:55:54;3.10;99.90
47520;DHT22;33252;48.122;11.538;2023-02-01T00:58:19;3.00;99.90
47520;DHT22;33252;48.122;11.538;2023-02-01T01:00:45;2.90;99.90
47520;DHT22;33252;48.122;11.538;2023-02-01T01:03:12;2.80;99.90
47520;DHT22;33252;48.122;11.538;2023-02-01T01:05:47;2.80;99.90
47520;DHT22;33252;48.122;11.538;2023-02-01T01:08:14;2.70;99.90
47520;DHT22;33252;48.122;11.538;2023-02-01T01:10:40;2.80;99.90
47520;DHT22;33252;48.122;11.538;2023-02-01T01:13:06;2.80;99.90
47520;DHT22;33252;48.122;11.538;2023-02-01T01:15:39;2.80;99.90
47520;DHT22;33252;48.122;11.538;2023-02-01T01:18:05;2.90;99.90
47520;DHT22;33252;48.122;11.538;2023-02-01T01:20:31;2.90;99.90
47520;DHT22;33252;48.122;11.538;2023-02-01T01:22:59;2.90;99.90
47520;DHT22;33252;48.122;11.538;2023-02-01T01:25:25;2.90;99.90
47520;DHT22;33252;48.122;11.538;2023-02-01T01:27:51;2.90;99.90
47520;DHT22;33252;48.122;11.538;2023-02-01T01:30:17;3.00;99.90
47520;DHT22;33252;48.122;11.538;2023-02-01T01:32:43;2.90;99.90
47520;DHT22;33252;48.122;11.538;2023-02-01T01:35:09;2.90;99.90
47520;DHT22;33252;48.122;11.538;2023-02-01T01:37:35;2.90;99.90
47520;DHT22;33252;48.122;11.538;2023-02-01T01:40:02;2.80;99.90
47520;DHT22;33252;48.122;11.538;2023-02-01T01:42:28;2.70;99.90
47520;DHT22;33252;48.122;11.538;2023-02-01T01:45:06;2.70;99.90
47520;DHT22;33252;48.122;11.538;2023-02-01T01:47:43;2.70;99.90
47520;DHT22;33252;48.122;11.538;2023-02-01T01:50:14;2.70;99.90
47520;DHT22;33252;48.122;11.538;2023-02-01T01:52:43;2.70;99.90
47520;DHT22;33252;48.122;11.538;2023-02-01T01:55:14;2.60;99.90
47520;DHT22;33252;48.122;11.538;2023-02-01T01:57:50;2.60;99.90
47520;DHT22;33252;48.122;11.538;2023-02-01T02:00:19;2.50;99.90
47520;DHT22;33252;48.122;11.538;2023-02-01T02:02:48;2.50;99.90
47520;DHT22;33252;48.122;11.538;2023-02-01T02:05:15;2.40;99.90
47520;DHT22;33252;48.122;11.538;2023-02-01T02:07:45;2.40;99.90
47520;DHT22;33252;48.122;11.538;2023-02-01T02:10:12;2.40;99.90
47520;DHT22;33252;48.122;11.538;2023-02-01T02:12:43;2.40;99.90
47520;DHT22;33252;48.122;11.538;2023-02-01T02:15:11;2.50;99.90
47520;DHT22;33252;48.122;11.538;2023-02-01T02:20:39;2.40;99.90
47520;DHT22;33252;48.122;11.538;2023-02-01T02:23:44;2.50;99.90
47520;DHT22;33252;48.122;11.538;2023-02-01T02:39:40;2.60;99.90
47520;DHT22;33252;48.122;11.538;2023-02-01T02:42:17;2.60;99.90
47520;DHT22;33252;48.122;11.538;2023-02-01T02:45:24;2.60;99.90
47520;DHT22;33252;48.122;11.538;2023-02-01T02:48:42;2.60;99.90
47520;DHT22;33252;48.122;11.538;2023-02-01T02:51:15;2.60;99.90
47520;DHT22;33252;48.122;11.538;2023-02-01T02:54:23;2.60;99.90
47520;DHT22;33252;48.122;11.538;2023-02-01T02:57:12;2.70;99.90
47520;DHT22;33252;48.122;11.538;2023-02-01T02:59:59;2.70;99.90
47520;DHT22;33252;48.122;11.538;2023-02-01T03:02:46;2.70;99.90
47520;DHT22;33252;48.122;11.538;2023-02-01T03:05:44;2.70;99.90
47520;DHT22;33252;48.122;11.538;2023-02-01T03:08:13;2.70;99.90
47520;DHT22;33252;48.122;11.538;2023-02-01T03:11:10;2.70;99.90
47520;DHT22;33252;48.122;11.538;2023-02-01T03:13:57;2.80;99.90
47520;DHT22;33252;48.122;11.538;2023-02-01T03:16:32;2.80;99.90
47520;DHT22;33252;48.122;11.538;2023-02-01T03:19:24;2.80;99.90
47520;DHT22;33252;48.122;11.538;2023-02-01T03:21:55;2.80;99.90
47520;DHT22;33252;48.122;11.538;2023-02-01T03:24:32;2.80;99.90
47520;DHT22;33252;48.122;11.538;2023-02-01T03:29:51;2.90;99.90
47520;DHT22;33252;48.122;11.538;2023-02-01T03:32:17;2.90;99.90
47520;DHT22;33252;48.122;11.538;2023-02-01T03:34:45;2.90;99.90
47520;DHT22;33252;48.122;11.538;2023-02-01T03:37:13;2.90;99.90
47520;DHT22;33252;48.122;11.538;2023-02-01T03:40:01;3.00;99.90
47520;DHT22;33252;48.122;11.538;2023-02-01T03:42:46;3.00;99.90
47520;DHT22;33252;48.122;11.538;2023-02-01T03:45:22;3.00;99.90
47520;DHT22;33252;48.122;11.538;2023-02-01T03:47:52;3.00;99.90
47520;DHT22;33252;48.122;11.538;2023-02-01T03:50:22;3.00;99.90
47520;DHT22;33252;48.122;11.538;2023-02-01T03:53:10;3.10;99.90
47520;DHT22;33252;48.122;11.538;2023-02-01T03:55:37;3.10;99.90
47520;DHT22;33252;48.122;11.538;2023-02-01T03:58:13;3.00;99.90
47520;DHT22;33252;48.122;11.538;2023-02-01T04:00:39;3.00;99.90
47520;DHT22;33252;48.122;11.538;2023-02-01T04:03:06;3.10;99.90
47520;DHT22;33252;48.122;11.538;2023-02-01T04:05:33;3.10;99.90
47520;DHT22;33252;48.122;11.538;2023-02-01T04:07:58;3.10;99.90
47520;DHT22;33252;48.122;11.538;2023-02-01T04:10:24;3.10;99.90
47520;DHT22;33252;48.122;11.538;2023-02-01T04:12:50;3.10;99.90
47520;DHT22;33252;48.122;11.538;2023-02-01T04:15:16;3.10;99.90
47520;DHT22;33252;48.122;11.538;2023-02-01T04:17:42;3.10;99.90
47520;DHT22;33252;48.122;11.538;2023-02-01T04:20:08;3.10;99.90
47520;DHT22;33252;48.122;11.538;2023-02-01T04:22:34;3.10;99.90
47520;DHT22;33252;48.122;11.538;2023-02-01T04:25:00;3.10;99.90
47520;DHT22;33252;48.122;11.538;2023-02-01T04:27:26;3.10;99.90
47520;DHT22;33252;48.122;11.538;2023-02-01T04:29:51;3.10;99.90
47520;DHT22;33252;48.122;11.538;2023-02-01T04:32:18;3.10;99.90
47520;DHT22;33252;48.122;11.538;2023-02-01T04:34:45;3.10;99.90
47520;DHT22;33252;48.122;11.538;2023-02-01T04:37:10;3.10;99.90
47520;DHT22;33252;48.122;11.538;2023-02-01T04:39:36;3.10;99.90
47520;DHT22;33252;48.122;11.538;2023-02-01T04:42:02;3.00;99.90
47520;DHT22;33252;48.122;11.538;2023-02-01T04:44:28;3.10;99.90
47520;DHT22;33252;48.122;11.538;2023-02-01T04:46:54;3.10;99.90
47520;DHT22;33252;48.122;11.538;2023-02-01T04:49:19;3.10;99.90
47520;DHT22;33252;48.122;11.538;2023-02-01T04:51:46;3.10;99.90
47520;DHT22;33252;48.122;11.538;2023-02-01T04:54:12;3.10;99.90
47520;DHT22;33252;48.122;11.538;2023-02-01T04:56:38;3.10;99.90
47520;DHT22;33252;48.122;11.538;2023-02-01T04:59:05;3.10;99.90
47520;DHT22;33252;48.122;11.538;2023-02-01T05:01:30;3.10;99.90
47520;DHT22;33252;48.122;11.538;2023-02-01T05:03:56;3.10;99.90
47520;DHT22;33252;48.122;11.538;2023-02-01T05:06:23;3.10;99.90
47520;DHT22;33252;48.122;11.538;2023-02-01T05:08:48;3.10;99.90
47520;DHT22;33252;48.122;11.538;2023-02-01T05:11:14;3.10;99.90
47520;DHT22;33252;48.122;11.538;2023-02-01T05:14:01;3.10;99.90
47520;DHT22;33252;48.122;11.538;2023-02-01T05:16:27;3.10;99.90
47520;DHT22;33252;48.122;11.538;2023-02-01T05:18:53;3.10;99.90
47520;DHT22;33252;48.122;11.538;2023-02-01T05:21:19;3.00;99.90
47520;DHT22;33252;48.122;11.538;2023-02-01T05:23:45;3.10;99.90
47520;DHT22;33252;48.122;11.538;2023-02-01T05:26:29;3.10;99.90
47520;DHT22;33252;48.122;11.538;2023-02-01T05:28:55;3.10;99.90
47520;DHT22;33252;48.122;11.538;2023-02-01T05:31:21;3.10;99.90
47520;DHT22;33252;48.122;11.538;2023-02-01T05:33:47;3.10;99.90
47520;DHT22;33252;48.122;11.538;2023-02-01T05:36:13;3.10;99.90
47520;DHT22;33252;48.122;11.538;2023-02-01T05:38:39;3.10;99.90
47520;DHT22;33252;48.122;11.538;2023-02-01T05:41:04;3.10;99.90
47520;DHT22;33252;48.122;11.538;2023-02-01T05:43:30;3.10;99.90
47520;DHT22;33252;48.122;11.538;2023-02-01T05:45:56;3.10;99.90
47520;DHT22;33252;48.122;11.538;2023-02-01T05:48:21;3.20;99.90
47520;DHT22;33252;48.122;11.538;2023-02-01T05:50:47;3.10;99.90
47520;DHT22;33252;48.122;11.538;2023-02-01T05:53:13;3.10;99.90
47520;DHT22;33252;48.122;11.538;2023-02-01T05:55:39;3.20;99.90
47520;DHT22;33252;48.122;11.538;2023-02-01T05:58:05;3.10;99.90
47520;DHT22;33252;48.122;11.538;2023-02-01T06:00:31;3.10;99.90
47520;DHT22;33252;48.122;11.538;2023-02-01T06:02:57;3.10;99.90
47520;DHT22;33252;48.122;11.538;2023-02-01T06:05:23;3.20;99.90
47520;DHT22;33252;48.122;11.538;2023-02-01T06:07:49;3.20;99.90
47520;DHT22;33252;48.122;11.538;2023-02-01T06:10:16;3.10;99.90
47520;DHT22;33252;48.122;11.538;2023-02-01T06:12:42;3.10;99.90
47520;DHT22;33252;48.122;11.538;2023-02-01T06:15:08;3.10;99.90
47520;DHT22;33252;48.122;11.538;2023-02-01T06:17:34;3.20;99.90
47520;DHT22;33252;48.122;11.538;2023-02-01T06:19:59;3.20;99.90
47520;DHT22;33252;48.122;11.538;2023-02-01T06:22:25;3.10;99.90
47520;DHT22;33252;48.122;11.538;2023-02-01T06:24:50;3.20;99.90
47520;DHT22;33252;48.122;11.538;2023-02-01T06:27:16;3.20;99.90
47520;DHT22;33252;48.122;11.538;2023-02-01T06:29:42;3.20;99.90
47520;DHT22;33252;48.122;11.538;2023-02-01T06:32:07;3.20;99.90
47520;DHT22;33252;48.122;11.538;2023-02-01T06:34:34;3.20;99.90
47520;DHT22;33252;48.122;11.538;2023-02-01T06:37:00;3.20;99.90
47520;DHT22;33252;48.122;11.538;2023-02-01T06:39:25;3.30;99.90
47520;DHT22;33252;48.122;11.538;2023-02-01T06:41:52;3.30;99.90
47520;DHT22;33252;48.122;11.538;2023-02-01T06:44:18;3.40;99.90
47520;DHT22;33252;48.122;11.538;2023-02-01T06:46:44;3.40;99.90
47520;DHT22;33252;48.122;11.538;2023-02-01T06:49:10;3.40;99.90
47520;DHT22;33252;48.122;11.538;2023-02-01T06:51:36;3.40;99.90
47520;DHT22;33252;48.122;11.538;2023-02-01T06:54:02;3.40;99.90
47520;DHT22;33252;48.122;11.538;2023-02-01T06:56:27;3.30;99.90
47520;DHT22;33252;48.122;11.538;2023-02-01T06:58:53;3.40;99.90
47520;DHT22;33252;48.122;11.538;2023-02-01T07:01:19;3.40;99.90
47520;DHT22;33252;48.122;11.538;2023-02-01T07:03:49;3.40;99.90
47520;DHT22;33252;48.122;11.538;2023-02-01T07:06:18;3.40;99.90
47520;DHT22;33252;48.122;11.538;2023-02-01T07:08:45;3.40;99.90
47520;DHT22;33252;48.122;11.538;2023-02-01T07:11:12;3.40;99.90
47520;DHT22;33252;48.122;11.538;2023-02-01T07:13:39;3.40;99.90
47520;DHT22;33252;48.122;11.538;2023-02-01T07:16:08;3.40;99.90
47520;DHT22;33252;48.122;11.538;2023-02-01T07:18:34;3.40;99.90
47520;DHT22;33252;48.122;11.538;2023-02-01T07:21:00;3.40;99.90
47520;DHT22;33252;48.122;11.538;2023-02-01T07:23:26;3.50;99.90
47520;DHT22;33252;48.122;11.538;2023-02-01T07:25:57;3.50;99.90
47520;DHT22;33252;48.122;11.538;2023-02-01T07:28:23;3.50;99.90
47520;DHT22;33252;48.122;11.538;2023-02-01T07:30:49;3.40;99.90
47520;DHT22;33252;48.122;11.538;2023-02-01T07:33:21;3.50;99.90
47520;DHT22;33252;48.122;11.538;2023-02-01T07:35:48;3.50;99.90
47520;DHT22;33252;48.122;11.538;2023-02-01T07:38:15;3.50;99.90
47520;DHT22;33252;48.122;11.538;2023-02-01T07:40:41;3.50;99.90
47520;DHT22;33252;48.122;11.538;2023-02-01T07:43:06;3.60;99.90
47520;DHT22;33252;48.122;11.538;2023-02-01T07:45:34;3.60;99.90
47520;DHT22;33252;48.122;11.538;2023-02-01T07:48:00;3.60;99.90
47520;DHT22;33252;48.122;11.538;2023-02-01T07:50:26;3.60;99.90
47520;DHT22;33252;48.122;11.538;2023-02-01T07:52:52;3.60;99.90
47520;DHT22;33252;48.122;11.538;2023-02-01T07:55:19;3.60;99.90
47520;DHT22;33252;48.122;11.538;2023-02-01T07:57:45;3.70;99.90
47520;DHT22;33252;48.122;11.538;2023-02-01T08:00:12;3.70;99.90
47520;DHT22;33252;48.122;11.538;2023-02-01T08:03:00;3.70;99.90
47520;DHT22;33252;48.122;11.538;2023-02-01T08:05:26;3.70;99.90
47520;DHT22;33252;48.122;11.538;2023-02-01T08:07:52;3.80;99.90
47520;DHT22;33252;48.122;11.538;2023-02-01T08:10:18;3.90;99.90
47520;DHT22;33252;48.122;11.538;2023-02-01T08:12:44;3.80;99.70
47520;DHT22;33252;48.122;11.538;2023-02-01T08:15:17;3.90;99.60
47520;DHT22;33252;48.122;11.538;2023-02-01T08:17:50;3.90;99.90
47520;DHT22;33252;48.122;11.538;2023-02-01T08:20:16;3.90;99.40
47520;DHT22;33252;48.122;11.538;2023-02-01T08:22:42;3.90;99.50
47520;DHT22;33252;48.122;11.538;2023-02-01T08:25:08;4.00;99.30
47520;DHT22;33252;48.122;11.538;2023-02-01T08:27:34;4.00;99.00
47520;DHT22;33252;48.122;11.538;2023-02-01T08:30:00;4.00;98.80
47520;DHT22;33252;48.122;11.538;2023-02-01T08:32:26;4.00;98.80
47520;DHT22;33252;48.122;11.538;2023-02-01T08:34:53;4.00;98.70
47520;DHT22;33252;48.122;11.538;2023-02-01T08:37:19;4.10;98.70
47520;DHT22;33252;48.122;11.538;2023-02-01T08:39:44;4.10;98.60
47520;DHT22;33252;48.122;11.538;2023-02-01T08:42:10;4.10;98.40
47520;DHT22;33252;48.122;11.538;2023-02-01T08:44:55;4.20;98.30
47520;DHT22;33252;48.122;11.538;2023-02-01T08:47:21;4.20;98.10
47520;DHT22;33252;48.122;11.538;2023-02-01T08:49:47;4.20;97.90
47520;DHT22;33252;48.122;11.538;2023-02-01T08:52:12;4.20;97.90
47520;DHT22;33252;48.122;11.538;2023-02-01T08:54:38;4.30;97.70
47520;DHT22;33252;48.122;11.538;2023-02-01T08:57:06;4.30;97.90
47520;DHT22;33252;48.122;11.538;2023-02-01T08:59:32;4.30;97.80
47520;DHT22;33252;48.122;11.538;2023-02-01T09:01:57;4.30;98.10
47520;DHT22;33252;48.122;11.538;2023-02-01T09:04:23;4.30;97.70
47520;DHT22;33252;48.122;11.538;2023-02-01T09:06:49;4.40;97.80
47520;DHT22;33252;48.122;11.538;2023-02-01T09:09:14;4.30;97.60
47520;DHT22;33252;48.122;11.538;2023-02-01T09:11:40;4.30;97.40
47520;DHT22;33252;48.122;11.538;2023-02-01T09:14:06;4.30;97.50
47520;DHT22;33252;48.122;11.538;2023-02-01T09:16:31;4.40;97.50
47520;DHT22;33252;48.122;11.538;2023-02-01T09:18:57;4.40;97.60
47520;DHT22;33252;48.122;11.538;2023-02-01T09:21:23;4.40;97.50
47520;DHT22;33252;48.122;11.538;2023-02-01T09:23:51;4.40;97.80
47520;DHT22;33252;48.122;11.538;2023-02-01T09:26:17;4.50;97.40
47520;DHT22;33252;48.122;11.538;2023-02-01T09:28:42;4.50;97.10
47520;DHT22;33252;48.122;11.538;2023-02-01T09:31:08;4.40;97.50
47520;DHT22;33252;48.122;11.538;2023-02-01T09:33:34;4.50;97.60
47520;DHT22;33252;48.122;11.538;2023-02-01T09:36:02;4.50;97.70
47520;DHT22;33252;48.122;11.538;2023-02-01T09:38:29;4.50;97.50
47520;DHT22;33252;48.122;11.538;2023-02-01T09:40:56;4.50;97.60
47520;DHT22;33252;48.122;11.538;2023-02-01T09:46:32;4.60;97.60
47520;DHT22;33252;48.122;11.538;2023-02-01T09:49:04;4.70;97.70
47520;DHT22;33252;48.122;11.538;2023-02-01T09:51:37;4.60;97.50
47520;DHT22;33252;48.122;11.538;2023-02-01T09:54:16;4.70;97.80
47520;DHT22;33252;48.122;11.538;2023-02-01T09:56:47;4.70;97.60
47520;DHT22;33252;48.122;11.538;2023-02-01T09:59:41;4.70;97.60
47520;DHT22;33252;48.122;11.538;2023-02-01T10:02:33;4.70;97.30
47520;DHT22;33252;48.122;11.538;2023-02-01T10:05:01;4.70;97.80
47520;DHT22;33252;48.122;11.538;2023-02-01T10:10:30;4.60;97.60
47520;DHT22;33252;48.122;11.538;2023-02-01T10:16:17;4.60;97.70
47520;DHT22;33252;48.122;11.538;2023-02-01T10:18:57;4.50;97.80
47520;DHT22;33252;48.122;11.538;2023-02-01T10:29:42;4.60;97.70
47520;DHT22;33252;48.122;11.538;2023-02-01T10:32:24;4.60;97.40
47520;DHT22;33252;48.122;11.538;2023-02-01T10:34:59;4.60;97.70
47520;DHT22;33252;48.122;11.538;2023-02-01T10:37:32;4.60;97.70
47520;DHT22;33252;48.122;11.538;2023-02-01T10:42:39;4.70;97.80
47520;DHT22;33252;48.122;11.538;2023-02-01T10:45:06;4.60;97.80
47520;DHT22;33252;48.122;11.538;2023-02-01T10:47:32;4.60;97.50
47520;DHT22;33252;48.122;11.538;2023-02-01T10:50:34;4.60;97.90
47520;DHT22;33252;48.122;11.538;2023-02-01T10:53:20;4.60;98.00
47520;DHT22;33252;48.122;11.538;2023-02-01T10:55:50;4.60;98.10
47520;DHT22;33252;48.122;11.538;2023-02-01T10:58:18;4.60;98.30
47520;DHT22;33252;48.122;11.538;2023-02-01T11:01:08;4.50;98.40
47520;DHT22;33252;48.122;11.538;2023-02-01T11:03:56;4.50;98.40
47520;DHT22;33252;48.122;11.538;2023-02-01T11:06:43;4.60;98.60
47520;DHT22;33252;48.122;11.538;2023-02-01T11:12:01;4.40;98.50
47520;DHT22;33252;48.122;11.538;2023-02-01T11:14:35;4.60;98.60
47520;DHT22;33252;48.122;11.538;2023-02-01T11:19:42;4.60;98.50
47520;DHT22;33252;48.122;11.538;2023-02-01T11:22:11;4.60;98.50
47520;DHT22;33252;48.122;11.538;2023-02-01T11:24:37;4.50;98.40
47520;DHT22;33252;48.122;11.538;2023-02-01T11:27:12;4.50;98.30
47520;DHT22;33252;48.122;11.538;2023-02-01T11:29:43;4.60;98.40
47520;DHT22;33252;48.122;11.538;2023-02-01T11:32:12;4.60;98.40
47520;DHT22;33252;48.122;11.538;2023-02-01T11:34:41;4.50;98.20
47520;DHT22;33252;48.122;11.538;2023-02-01T11:37:25;4.50;98.30
47520;DHT22;33252;48.122;11.538;2023-02-01T11:39:58;4.40;98.30
47520;DHT22;33252;48.122;11.538;2023-02-01T11:42:25;4.40;98.20
47520;DHT22;33252;48.122;11.538;2023-02-01T11:45:40;4.40;98.20
47520;DHT22;33252;48.122;11.538;2023-02-01T11:48:00;4.40;98.10
47520;DHT22;33252;48.122;11.538;2023-02-01T11:54:07;4.40;98.30
47520;DHT22;33252;48.122;11.538;2023-02-01T11:56:35;4.40;98.20
47520;DHT22;33252;48.122;11.538;2023-02-01T12:02:48;4.40;98.10
47520;DHT22;33252;48.122;11.538;2023-02-01T12:10:58;4.40;98.40
47520;DHT22;33252;48.122;11.538;2023-02-01T12:16:21;4.40;98.70
47520;DHT22;33252;48.122;11.538;2023-02-01T12:19:08;4.30;98.30
47520;DHT22;33252;48.122;11.538;2023-02-01T12:32:20;4.20;98.30
47520;DHT22;33252;48.122;11.538;2023-02-01T12:35:01;4.20;98.10
47520;DHT22;33252;48.122;11.538;2023-02-01T12:42:38;4.20;98.10
47520;DHT22;33252;48.122;11.538;2023-02-01T12:48:36;4.10;98.00
47520;DHT22;33252;48.122;11.538;2023-02-01T12:51:05;4.20;97.90
47520;DHT22;33252;48.122;11.538;2023-02-01T12:53:50;4.20;97.70
47520;DHT22;33252;48.122;11.538;2023-02-01T12:56:43;4.20;97.80
47520;DHT22;33252;48.122;11.538;2023-02-01T12:59:36;4.30;97.40
47520;DHT22;33252;48.122;11.538;2023-02-01T13:02:25;4.30;96.90
47520;DHT22;33252;48.122;11.538;2023-02-01T13:05:01;4.30;96.80
47520;DHT22;33252;48.122;11.538;2023-02-01T13:07:49;4.40;96.90
47520;DHT22;33252;48.122;11.538;2023-02-01T13:10:33;4.30;96.90
47520;DHT22;33252;48.122;11.538;2023-02-01T13:13:17;4.40;96.70
47520;DHT22;33252;48.122;11.538;2023-02-01T13:21:50;4.40;97.10
47520;DHT22;33252;48.122;11.538;2023-02-01T13:26:58;4.40;97.60
47520;DHT22;33252;48.122;11.538;2023-02-01T13:29:24;4.40;97.80
47520;DHT22;33252;48.122;11.538;2023-02-01T13:37:36;4.30;98.20
47520;DHT22;33252;48.122;11.538;2023-02-01T13:40:42;4.30;98.30
47520;DHT22;33252;48.122;11.538;2023-02-01T13:43:28;4.30;98.50
47520;DHT22;33252;48.122;11.538;2023-02-01T13:45:57;4.40;98.40
47520;DHT22;33252;48.122;11.538;2023-02-01T13:51:13;4.40;98.50
47520;DHT22;33252;48.122;11.538;2023-02-01T13:53:46;4.40;98.50
47520;DHT22;33252;48.122;11.538;2023-02-01T13:56:13;4.30;98.70
47520;DHT22;33252;48.122;11.538;2023-02-01T13:58:42;4.40;99.00
47520;DHT22;33252;48.122;11.538;2023-02-01T14:01:32;4.40;98.70
47520;DHT22;33252;48.122;11.538;2023-02-01T14:04:04;4.30;98.80
47520;DHT22;33252;48.122;11.538;2023-02-01T14:11:54;4.30;98.80
47520;DHT22;33252;48.122;11.538;2023-02-01T14:19:45;4.30;98.40
47520;DHT22;33252;48.122;11.538;2023-02-01T14:24:51;4.30;98.40
47520;DHT22;33252;48.122;11.538;2023-02-01T14:27:28;4.40;98.30
47520;DHT22;33252;48.122;11.538;2023-02-01T14:30:05;4.30;98.00
47520;DHT22;33252;48.122;11.538;2023-02-01T14:32:39;4.30;98.00
47520;DHT22;33252;48.122;11.538;2023-02-01T14:35:27;4.30;97.80
47520;DHT22;33252;48.122;11.538;2023-02-01T14:37:58;4.30;97.70
47520;DHT22;33252;48.122;11.538;2023-02-01T14:40:27;4.30;97.90
47520;DHT22;33252;48.122;11.538;2023-02-01T14:42:54;4.30;97.50
47520;DHT22;33252;48.122;11.538;2023-02-01T14:50:21;4.30;97.30
47520;DHT22;33252;48.122;11.538;2023-02-01T14:53:14;4.30;97.20
47520;DHT22;33252;48.122;11.538;2023-02-01T14:56:08;4.30;97.30
47520;DHT22;33252;48.122;11.538;2023-02-01T14:58:45;4.30;97.40
47520;DHT22;33252;48.122;11.538;2023-02-01T15:01:28;4.30;97.30
47520;DHT22;33252;48.122;11.538;2023-02-01T15:11:29;4.20;97.80
47520;DHT22;33252;48.122;11.538;2023-02-01T15:13:55;4.20;97.80
47520;DHT22;33252;48.122;11.538;2023-02-01T15:16:25;4.20;97.90
47520;DHT22;33252;48.122;11.538;2023-02-01T15:19:06;4.20;98.00
47520;DHT22;33252;48.122;11.538;2023-02-01T15:21:42;4.10;98.30
47520;DHT22;33252;48.122;11.538;2023-02-01T15:24:34;4.20;98.60
47520;DHT22;33252;48.122;11.538;2023-02-01T15:27:04;4.10;98.60
47520;DHT22;33252;48.122;11.538;2023-02-01T15:29:30;4.00;98.70
47520;DHT22;33252;48.122;11.538;2023-02-01T15:31:59;3.90;98.70
47520;DHT22;33252;48.122;11.538;2023-02-01T15:34:45;3.90;99.20
47520;DHT22;33252;48.122;11.538;2023-02-01T15:37:14;3.80;99.20
47520;DHT22;33252;48.122;11.538;2023-02-01T15:42:49;3.70;99.90
47520;DHT22;33252;48.122;11.538;2023-02-01T15:45:24;3.60;99.90
47520;DHT22;33252;48.122;11.538;2023-02-01T15:47:52;3.60;99.90
47520;DHT22;33252;48.122;11.538;2023-02-01T15:50:20;3.50;99.90
47520;DHT22;33252;48.122;11.538;2023-02-01T15:52:51;3.60;99.90
47520;DHT22;33252;48.122;11.538;2023-02-01T15:55:23;3.60;99.90
47520;DHT22;33252;48.122;11.538;2023-02-01T15:57:50;3.60;99.90
47520;DHT22;33252;48.122;11.538;2023-02-01T16:00:41;3.60;99.90
47520;DHT22;33252;48.122;11.538;2023-02-01T16:03:36;3.60;99.90
47520;DHT22;33252;48.122;11.538;2023-02-01T16:06:27;3.60;99.90
47520;DHT22;33252;48.122;11.538;2023-02-01T16:08:53;3.50;99.90
47520;DHT22;33252;48.122;11.538;2023-02-01T16:11:28;3.60;99.90
47520;DHT22;33252;48.122;11.538;2023-02-01T16:13:59;3.60;99.90
47520;DHT22;33252;48.122;11.538;2023-02-01T16:16:26;3.60;99.90
47520;DHT22;33252;48.122;11.538;2023-02-01T16:18:52;3.60;99.90
47520;DHT22;33252;48.122;11.538;2023-02-01T16:21:18;3.60;99.70
47520;DHT22;33252;48.122;11.538;2023-02-01T16:23:43;3.60;99.20
47520;DHT22;33252;48.122;11.538;2023-02-01T16:26:13;3.60;99.40
47520;DHT22;33252;48.122;11.538;2023-02-01T16:28:38;3.60;99.00
47520;DHT22;33252;48.122;11.538;2023-02-01T16:31:05;3.70;99.00
47520;DHT22;33252;48.122;11.538;2023-02-01T16:33:34;3.70;99.00
47520;DHT22;33252;48.122;11.538;2023-02-01T16:36:00;3.70;99.10
47520;DHT22;33252;48.122;11.538;2023-02-01T16:38:29;3.70;98.70
47520;DHT22;33252;48.122;11.538;2023-02-01T16:40:54;3.70;98.70
47520;DHT22;33252;48.122;11.538;2023-02-01T16:43:24;3.70;98.90
47520;DHT22;33252;48.122;11.538;2023-02-01T16:45:52;3.70;98.50
47520;DHT22;33252;48.122;11.538;2023-02-01T16:48:33;3.80;98.80
47520;DHT22;33252;48.122;11.538;2023-02-01T16:51:02;3.80;98.80
47520;DHT22;33252;48.122;11.538;2023-02-01T16:53:30;3.80;98.60
47520;DHT22;33252;48.122;11.538;2023-02-01T16:55:56;3.80;98.50
47520;DHT22;33252;48.122;11.538;2023-02-01T16:58:23;3.90;98.10
47520;DHT22;33252;48.122;11.538;2023-02-01T17:00:49;3.90;98.20
47520;DHT22;33252;48.122;11.538;2023-02-01T17:03:16;3.90;98.00
47520;DHT22;33252;48.122;11.538;2023-02-01T17:06:00;3.90;97.70
47520;DHT22;33252;48.122;11.538;2023-02-01T17:08:31;4.00;97.50
47520;DHT22;33252;48.122;11.538;2023-02-01T17:10:58;4.00;97.20
47520;DHT22;33252;48.122;11.538;2023-02-01T17:13:23;4.00;97.10
47520;DHT22;33252;48.122;11.538;2023-02-01T17:15:53;4.00;96.90
47520;DHT22;33252;48.122;11.538;2023-02-01T17:18:20;4.00;96.80
47520;DHT22;33252;48.122;11.538;2023-02-01T17:20:46;4.10;96.80
47520;DHT22;33252;48.122;11.538;2023-02-01T17:23:14;4.10;96.40
47520;DHT22;33252;48.122;11.538;2023-02-01T17:25:40;4.10;96.40
47520;DHT22;33252;48.122;11.538;2023-02-01T17:28:06;4.10;96.70
47520;DHT22;33252;48.122;11.538;2023-02-01T17:30:32;4.10;96.40
47520;DHT22;33252;48.122;11.538;2023-02-01T17:32:58;4.10;96.40
47520;DHT22;33252;48.122;11.538;2023-02-01T17:35:27;4.10;96.40
47520;DHT22;33252;48.122;11.538;2023-02-01T17:37:53;4.10;96.40
47520;DHT22;33252;48.122;11.538;2023-02-01T17:40:19;4.10;96.50
47520;DHT22;33252;48.122;11.538;2023-02-01T17:42:44;4.10;96.30
47520;DHT22;33252;48.122;11.538;2023-02-01T17:45:48;4.10;96.20
47520;DHT22;33252;48.122;11.538;2023-02-01T17:48:18;4.20;96.00
47520;DHT22;33252;48.122;11.538;2023-02-01T17:50:46;4.20;95.70
47520;DHT22;33252;48.122;11.538;2023-02-01T17:53:13;4.20;95.80
47520;DHT22;33252;48.122;11.538;2023-02-01T17:55:44;4.20;95.90
47520;DHT22;33252;48.122;11.538;2023-02-01T17:58:11;4.20;95.80
47520;DHT22;33252;48.122;11.538;2023-02-01T18:00:38;4.20;95.60